Time;durP1;ratioP1;P1;durP2;ratioP2;P2;SDS_P1;SDS_P2;PMS_P1;PMS_P2;Temp;Humidity;BMP_temperature;BMP_pressure;BME280_temperature;BME280_humidity;BME280_pressure;Samples;Min_cycle;Max_cycle;Signal;HPM_P1;HPM_P2
2022/11/16 00:01:41;;;;;;;;;;;;;;;18.57;72.08;100649.09;7404683;19;1472;-62
2022/11/16 00:04:13;;;;;;;;;;;;;;;18.58;72.40;100658.84;7406159;19;1894;-62
2022/11/16 00:06:42;;;;;;;;;;;;;;;18.57;72.56;100650.94;7411579;19;1488;-62
2022/11/16 00:09:25;;;;;;;;;;;;;;;18.54;72.59;100644.00;7412172;19;1349;-62
2022/11/16 00:11:56;;;;;;;;;;;;;;;18.59;73.14;100638.25;7411830;19;1362;-62
2022/11/16 00:14:26;;;;;;;;;;;;;;;18.57;72.24;100646.41;7409723;19;1590;-62
2022/11/16 00:16:54;;;;;;;;;;;;;;;18.58;72.75;100624.03;7412180;19;1463;-62
2022/11/16 00:19:25;;;;;;;;;;;;;;;18.62;72.80;100662.94;7412048;19;1563;-62
2022/11/16 00:21:54;;;;;;;;;;;;;;;18.57;73.07;100635.72;7410621;19;1684;-62
2022/11/16 00:24:23;;;;;;;;;;;;;;;18.57;72.99;100633.03;7408521;19;1853;-62
2022/11/16 00:26:52;;;;;;;;;;;;;;;18.56;72.73;100625.13;7411572;19;1522;-62
2022/11/16 00:29:21;;;;;;;;;;;;;;;18.55;72.88;100618.09;7411301;19;1117;-62
2022/11/16 00:31:50;;;;;;;;;;;;;;;18.55;72.69;100637.66;7411267;19;1550;-62
2022/11/16 00:34:18;;;;;;;;;;;;;;;18.51;72.34;100622.03;7411333;19;1680;-62
2022/11/16 00:36:50;;;;;;;;;;;;;;;18.47;71.75;100629.47;7410574;19;1692;-62
2022/11/16 00:39:19;;;;;;;;;;;;;;;18.50;72.53;100605.09;7410336;19;1462;-63
2022/11/16 00:41:48;;;;;;;;;;;;;;;18.49;72.68;100603.41;7411103;19;1322;-63
2022/11/16 00:44:17;;;;;;;;;;;;;;;18.54;72.97;100594.97;7408863;19;1845;-62
2022/11/16 00:46:46;;;;;;;;;;;;;;;18.55;72.81;100588.63;7410588;19;1484;-62
2022/11/16 00:49:14;;;;;;;;;;;;;;;18.48;71.87;100585.63;7409760;19;1468;-62
2022/11/16 00:51:42;;;;;;;;;;;;;;;18.48;72.15;100585.63;7410608;19;1713;-62
2022/11/16 00:54:13;;;;;;;;;;;;;;;18.46;71.99;100584.94;7410581;19;1629;-62
2022/11/16 00:56:42;;;;;;;;;;;;;;;18.47;72.51;100592.00;7410727;19;1527;-62
2022/11/16 00:59:10;;;;;;;;;;;;;;;18.45;72.22;100575.22;7410968;19;1010;-63
2022/11/16 01:01:38;;;;;;;;;;;;;;;18.44;72.42;100573.50;7406237;19;1472;-62
2022/11/16 01:04:07;;;;;;;;;;;;;;;18.44;72.29;100581.53;7407462;19;1973;-63
2022/11/16 01:06:35;;;;;;;;;;;;;;;18.45;72.17;100559.16;7409493;19;1601;-63
2022/11/16 01:09:03;;;;;;;;;;;;;;;18.52;72.61;100581.69;7409801;19;1542;-63
2022/11/16 01:14:16;;;;;;;;;;;;;;;18.46;72.75;100559.03;7408822;19;1438;-62
2022/11/16 01:16:44;;;;;;;;;;;;;;;18.45;72.38;100561.81;7408622;19;1684;-62
2022/11/16 01:19:12;;;;;;;;;;;;;;;18.47;72.50;100560.69;7408676;19;1658;-62
2022/11/16 01:21:41;;;;;;;;;;;;;;;18.42;72.09;100546.88;7408790;19;1796;-62
2022/11/16 01:24:09;;;;;;;;;;;;;;;18.46;72.66;100556.34;7407204;19;1846;-62
2022/11/16 01:26:40;;;;;;;;;;;;;;;18.53;73.47;100545.91;7409233;19;1598;-62
2022/11/16 01:29:08;;;;;;;;;;;;;;;18.49;72.95;100549.84;7409396;19;1010;-62
2022/11/16 01:31:37;;;;;;;;;;;;;;;18.47;73.25;100536.59;7408761;19;1669;-62
2022/11/16 01:34:05;;;;;;;;;;;;;;;18.48;72.95;100532.94;7408528;19;1480;-63
2022/11/16 01:36:35;;;;;;;;;;;;;;;18.44;72.82;100558.31;7409175;19;1597;-62
2022/11/16 01:39:03;;;;;;;;;;;;;;;18.43;72.89;100547.72;7405854;19;1547;-62
2022/11/16 01:41:32;;;;;;;;;;;;;;;18.43;73.04;100529.00;7408041;19;1464;-62
2022/11/16 01:44:04;;;;;;;;;;;;;;;18.43;73.22;100534.34;7408105;19;1860;-62
2022/11/16 01:46:32;;;;;;;;;;;;;;;18.37;72.21;100530.38;7408584;19;1684;-62
2022/11/16 01:49:03;;;;;;;;;;;;;;;18.33;72.66;100525.44;7407775;19;1583;-62
2022/11/16 01:51:32;;;;;;;;;;;;;;;18.33;71.98;100534.31;7408051;19;1507;-62
2022/11/16 01:54:02;;;;;;;;;;;;;;;18.33;72.23;100512.91;7404666;19;1436;-62
2022/11/16 01:56:33;;;;;;;;;;;;;;;18.31;72.46;100509.50;7406751;19;1523;-62
2022/11/16 01:59:05;;;;;;;;;;;;;;;18.32;72.21;100505.84;7408373;19;1527;-62
2022/11/16 02:01:34;;;;;;;;;;;;;;;18.42;72.68;100505.88;7407452;19;1865;-62
2022/11/16 02:04:02;;;;;;;;;;;;;;;19.21;70.43;100497.72;7406098;19;1862;-62
2022/11/16 02:06:35;;;;;;;;;;;;;;;19.53;69.71;100503.75;7408577;19;1515;-62
2022/11/16 02:12:04;;;;;;;;;;;;;;;20.05;68.60;100498.78;7408856;19;1585;-62
2022/11/16 02:14:43;;;;;;;;;;;;;;;20.61;66.92;100497.78;7406416;19;1464;-63
2022/11/16 02:17:15;;;;;;;;;;;;;;;20.35;67.26;100494.09;7407417;19;1352;-63
2022/11/16 02:19:53;;;;;;;;;;;;;;;20.12;67.94;100493.66;7406900;19;1625;-63
2022/11/16 02:22:28;;;;;;;;;;;;;;;20.01;68.58;100492.84;7408061;19;1432;-63
2022/11/16 02:25:03;;;;;;;;;;;;;;;19.95;68.61;100500.66;7406828;19;1853;-63
2022/11/16 02:27:46;;;;;;;;;;;;;;;20.14;68.08;100495.19;7408071;19;996;-63
2022/11/16 02:30:19;;;;;;;;;;;;;;;20.23;68.00;100505.06;7402969;19;1715;-63
2022/11/16 02:32:51;;;;;;;;;;;;;;;20.20;67.88;100493.75;7406666;19;1530;-63
2022/11/16 02:35:21;;;;;;;;;;;;;;;20.32;67.63;100499.78;7407240;19;1405;-63
2022/11/16 02:37:52;;;;;;;;;;;;;;;20.18;68.18;100488.53;7405783;19;1467;-63
2022/11/16 02:40:22;;;;;;;;;;;;;;;20.22;68.10;100497.13;7405876;19;1460;-63
2022/11/16 02:42:52;;;;;;;;;;;;;;;20.16;68.31;100497.75;7407760;19;1875;-63
2022/11/16 02:45:25;;;;;;;;;;;;;;;20.30;67.75;100489.19;7404722;19;1727;-63
2022/11/16 02:47:55;;;;;;;;;;;;;;;20.25;67.96;100475.34;7405128;19;1617;-62
2022/11/16 02:50:24;;;;;;;;;;;;;;;20.40;67.64;100479.22;7406364;19;1464;-63
2022/11/16 02:52:52;;;;;;;;;;;;;;;20.53;67.07;100468.09;7405588;19;1558;-62
2022/11/16 02:55:20;;;;;;;;;;;;;;;20.69;66.72;100478.19;7405814;19;1563;-62
2022/11/16 02:57:53;;;;;;;;;;;;;;;20.50;67.01;100471.09;7407503;19;1009;-63
2022/11/16 03:00:26;;;;;;;;;;;;;;;20.40;67.60;100457.72;7402507;19;1676;-62
2022/11/16 03:03:08;;;;;;;;;;;;;;;20.53;67.18;100468.09;7404205;19;1880;-63
2022/11/16 03:05:39;;;;;;;;;;;;;;;20.44;67.58;100442.16;7405651;19;1574;-63
2022/11/16 03:08:18;;;;;;;;;;;;;;;20.39;67.63;100450.69;7406597;19;1512;-63
2022/11/16 03:13:31;;;;;;;;;;;;;;;20.61;67.23;100444.03;7406884;19;1402;-63
2022/11/16 03:16:04;;;;;;;;;;;;;;;20.69;66.88;100447.78;7404519;19;1752;-63
2022/11/16 03:18:33;;;;;;;;;;;;;;;20.55;67.26;100444.63;7405257;19;1546;-63
2022/11/16 03:21:06;;;;;;;;;;;;;;;20.48;67.56;100443.53;7404667;19;1884;-63
2022/11/16 03:23:35;;;;;;;;;;;;;;;20.59;67.50;100440.66;7405272;19;1865;-63
2022/11/16 03:26:06;;;;;;;;;;;;;;;20.48;67.40;100438.16;7404095;19;1467;-62
2022/11/16 03:28:36;;;;;;;;;;;;;;;20.48;67.63;100427.41;7404229;19;1531;-63
2022/11/16 03:31:12;;;;;;;;;;;;;;;20.50;67.50;100436.16;7402871;19;1768;-63
2022/11/16 03:33:44;;;;;;;;;;;;;;;20.50;67.26;100411.16;7404580;19;1346;-63
2022/11/16 03:36:17;;;;;;;;;;;;;;;20.44;67.76;100420.66;7404380;19;1598;-63
2022/11/16 03:38:46;;;;;;;;;;;;;;;20.62;67.12;100401.88;7403316;19;1346;-63
2022/11/16 03:41:15;;;;;;;;;;;;;;;20.65;66.98;100402.44;7403800;19;1342;-63
2022/11/16 03:43:45;;;;;;;;;;;;;;;20.65;67.10;100396.19;7404778;19;1868;-63
2022/11/16 03:46:17;;;;;;;;;;;;;;;20.69;66.93;100396.72;7402125;19;1681;-63
2022/11/16 03:48:45;;;;;;;;;;;;;;;20.66;67.02;100387.97;7404772;19;1297;-62
2022/11/16 03:51:13;;;;;;;;;;;;;;;20.74;66.99;100399.81;7403948;19;1629;-63
2022/11/16 03:53:42;;;;;;;;;;;;;;;20.71;66.64;100384.84;7404194;19;1578;-63
2022/11/16 03:56:10;;;;;;;;;;;;;;;20.59;67.24;100370.81;7403955;19;1547;-63
2022/11/16 03:58:38;;;;;;;;;;;;;;;20.69;66.92;100375.22;7404031;19;996;-63
2022/11/16 04:01:07;;;;;;;;;;;;;;;20.79;66.90;100381.34;7401280;19;1689;-65
2022/11/16 04:03:38;;;;;;;;;;;;;;;20.92;66.16;100376.41;7400555;19;1859;-63
2022/11/16 04:25:03;;;;;;;;;;;;;;;20.96;66.52;100372.41;7402318;19;1849;-63
2022/11/16 04:30:13;;;;;;;;;;;;;;;21.05;66.20;100371.47;7400342;19;1726;-63
2022/11/16 04:38:05;;;;;;;;;;;;;;;20.97;66.16;100373.25;7402505;19;1525;-63
2022/11/16 04:40:34;;;;;;;;;;;;;;;21.01;66.38;100371.94;7401499;19;1530;-64
2022/11/16 04:43:03;;;;;;;;;;;;;;;20.99;66.35;100361.34;7400094;19;997;-63
2022/11/16 04:48:13;;;;;;;;;;;;;;;21.17;65.63;100352.34;7401147;19;1614;-63
2022/11/16 04:50:44;;;;;;;;;;;;;;;21.21;65.93;100364.50;7404001;19;1448;-63
2022/11/16 04:53:13;;;;;;;;;;;;;;;21.42;65.25;100334.50;7401255;19;1316;-63
2022/11/16 04:55:41;;;;;;;;;;;;;;;20.86;67.01;100355.53;7408635;19;1337;-64
2022/11/16 04:58:09;;;;;;;;;;;;;;;20.42;68.02;100344.78;7407393;19;1305;-64
2022/11/16 05:00:38;;;;;;;;;;;;;;;20.21;68.85;100331.66;7405755;19;1649;-64
2022/11/16 05:03:06;;;;;;;;;;;;;;;20.10;69.14;100343.47;7405982;19;1429;-64
2022/11/16 05:05:35;;;;;;;;;;;;;;;20.01;69.40;100339.84;7402722;19;1853;-63
2022/11/16 05:08:06;;;;;;;;;;;;;;;19.99;69.44;100357.94;7407758;19;1301;-64
2022/11/16 05:10:34;;;;;;;;;;;;;;;19.90;69.96;100337.41;7406473;19;1431;-63
2022/11/16 05:13:03;;;;;;;;;;;;;;;19.81;69.85;100341.84;7406587;19;1527;-63
2022/11/16 05:15:31;;;;;;;;;;;;;;;19.75;68.77;100341.59;7405628;19;1308;-63
2022/11/16 05:17:59;;;;;;;;;;;;;;;19.71;69.63;100353.59;7405037;19;1230;-63
2022/11/16 05:24:32;;;;;;;;;;;;;;;19.73;70.19;100331.00;7405395;19;1518;-63
2022/11/16 05:25:59;;;;;;;;;;;;;;;19.68;70.30;100347.53;7405980;19;1535;-63
2022/11/16 05:28:27;;;;;;;;;;;;;;;19.69;69.64;100340.34;7341114;19;14482;-63
2022/11/16 05:30:56;;;;;;;;;;;;;;;19.60;70.02;100331.34;7403956;19;1683;-63
2022/11/16 05:33:26;;;;;;;;;;;;;;;19.65;70.59;100341.63;7405193;19;1318;-64
2022/11/16 05:35:54;;;;;;;;;;;;;;;19.63;70.39;100338.25;7406748;19;1345;-64
2022/11/16 05:38:25;;;;;;;;;;;;;;;19.60;70.39;100333.19;7406261;19;1723;-63
2022/11/16 05:40:54;;;;;;;;;;;;;;;19.61;70.52;100348.28;7405204;19;1502;-63
2022/11/16 05:43:22;;;;;;;;;;;;;;;19.54;70.29;100339.16;7406905;19;1443;-63
2022/11/16 05:45:50;;;;;;;;;;;;;;;19.57;70.57;100339.69;7403607;19;1838;-64
2022/11/16 05:48:18;;;;;;;;;;;;;;;19.54;70.67;100337.31;7405686;19;1585;-63
2022/11/16 05:50:47;;;;;;;;;;;;;;;19.52;70.51;100349.16;7406067;19;1573;-64
2022/11/16 05:53:15;;;;;;;;;;;;;;;19.45;70.28;100341.72;7404581;19;1636;-64
2022/11/16 05:55:46;;;;;;;;;;;;;;;19.46;70.60;100340.75;7406087;19;1451;-64
2022/11/16 05:58:14;;;;;;;;;;;;;;;19.59;70.66;100352.97;7407162;19;1009;-64
2022/11/16 06:00:43;;;;;;;;;;;;;;;19.53;70.56;100332.09;7401845;19;1452;-64
2022/11/16 06:03:11;;;;;;;;;;;;;;;19.45;70.75;100317.59;7405621;19;1611;-63
2022/11/16 06:05:39;;;;;;;;;;;;;;;19.41;70.42;100334.97;7401631;19;1842;-64
2022/11/16 06:08:07;;;;;;;;;;;;;;;19.41;71.11;100340.34;7405619;19;1566;-63
2022/11/16 06:10:36;;;;;;;;;;;;;;;19.53;70.74;100321.38;7405093;19;1347;-64
2022/11/16 06:13:07;;;;;;;;;;;;;;;19.55;70.81;100320.22;7405567;19;1474;-64
2022/11/16 06:15:38;;;;;;;;;;;;;;;19.48;70.72;100300.38;7404825;19;1672;-64
2022/11/16 06:18:06;;;;;;;;;;;;;;;19.53;70.64;100321.38;7404021;19;1385;-64
2022/11/16 06:20:35;;;;;;;;;;;;;;;19.44;71.04;100299.81;7404611;19;1139;-64
2022/11/16 06:23:03;;;;;;;;;;;;;;;19.47;70.85;100315.59;7405983;19;1581;-64
2022/11/16 06:25:32;;;;;;;;;;;;;;;19.43;71.10;100326.78;7402749;19;1854;-65
2022/11/16 06:28:00;;;;;;;;;;;;;;;19.41;71.12;100328.78;7405073;19;1507;-64
2022/11/16 06:30:31;;;;;;;;;;;;;;;19.35;71.19;100316.81;7401728;19;1705;-64
2022/11/16 06:33:00;;;;;;;;;;;;;;;19.46;71.26;100321.97;7404069;19;1628;-64
2022/11/16 06:35:28;;;;;;;;;;;;;;;19.48;71.03;100305.75;7403738;19;1536;-64
2022/11/16 06:37:57;;;;;;;;;;;;;;;19.41;70.94;100301.97;7404854;19;1443;-64
2022/11/16 06:40:25;;;;;;;;;;;;;;;19.34;71.00;100293.69;7404466;19;1523;-64
2022/11/16 06:42:55;;;;;;;;;;;;;;;19.36;70.98;100291.69;7406059;19;949;-64
2022/11/16 06:45:24;;;;;;;;;;;;;;;19.36;70.88;100286.34;7402445;19;1852;-64
2022/11/16 06:47:55;;;;;;;;;;;;;;;19.46;70.63;100303.19;7402946;19;1540;-64
2022/11/16 06:50:23;;;;;;;;;;;;;;;19.44;70.83;100289.09;7404656;19;1597;-64
2022/11/16 06:52:51;;;;;;;;;;;;;;;19.34;70.90;100291.00;7404388;19;1349;-64
2022/11/16 06:55:20;;;;;;;;;;;;;;;19.32;71.28;100274.22;7403439;19;1549;-65
2022/11/16 06:57:48;;;;;;;;;;;;;;;19.35;70.93;100279.25;7404595;19;1601;-64
2022/11/16 07:00:17;;;;;;;;;;;;;;;19.46;70.66;100278.22;7400563;19;1554;-64
2022/11/16 07:02:45;;;;;;;;;;;;;;;19.52;70.77;100295.53;7404976;19;1434;-65
2022/11/16 07:05:16;;;;;;;;;;;;;;;19.41;70.50;100280.50;7401991;19;1854;-65
2022/11/16 07:07:45;;;;;;;;;;;;;;;19.35;70.71;100265.84;7402805;19;1604;-65
2022/11/16 07:10:13;;;;;;;;;;;;;;;19.35;70.86;100265.84;7404501;19;1633;-63
2022/11/16 07:12:41;;;;;;;;;;;;;;;19.48;70.59;100266.34;7401448;19;1447;-64
2022/11/16 07:15:10;;;;;;;;;;;;;;;19.38;70.59;100270.94;7397702;19;1671;-63
2022/11/16 07:17:38;;;;;;;;;;;;;;;19.41;72.02;100269.78;7403832;19;1354;-67
2022/11/16 07:20:07;;;;;;;;;;;;;;;20.18;69.52;100271.06;7402703;19;1454;-65
2022/11/16 07:22:38;;;;;;;;;;;;;;;20.89;67.89;100258.50;7398621;19;1502;-64
2022/11/16 07:25:07;;;;;;;;;;;;;;;20.93;67.69;100270.59;7403147;19;1849;-65
2022/11/16 07:27:36;;;;;;;;;;;;;;;21.02;67.86;100263.41;7404010;19;1447;-66
2022/11/16 07:30:04;;;;;;;;;;;;;;;21.39;66.88;100257.66;7398561;19;1680;-63
2022/11/16 07:32:33;;;;;;;;;;;;;;;21.44;66.73;100249.97;7403435;19;1519;-63
2022/11/16 07:35:04;;;;;;;;;;;;;;;21.20;67.77;100260.63;7399859;19;1456;-63
2022/11/16 07:37:32;;;;;;;;;;;;;;;20.98;68.88;100256.66;7402460;19;1363;-68
2022/11/16 07:40:03;;;;;;;;;;;;;;;20.98;69.02;100257.50;7402995;19;1463;-71
2022/11/16 07:42:31;;;;;;;;;;;;;;;20.88;70.66;100256.78;7402056;19;1507;-70
2022/11/16 07:45:00;;;;;;;;;;;;;;;20.77;71.20;100260.59;7402486;19;1846;-71
2022/11/16 07:47:28;;;;;;;;;;;;;;;20.73;71.83;100247.63;7401763;19;1580;-69
2022/11/16 07:49:56;;;;;;;;;;;;;;;20.89;71.93;100247.75;7402481;19;1628;-68
2022/11/16 07:52:24;;;;;;;;;;;;;;;20.76;72.40;100258.06;7401761;19;1446;-63
2022/11/16 07:54:53;;;;;;;;;;;;;;;20.89;73.39;100245.06;7402819;19;1236;-65
2022/11/16 07:57:24;;;;;;;;;;;;;;;20.98;73.47;100249.44;7402360;19;1621;-66
2022/11/16 07:59:52;;;;;;;;;;;;;;;21.00;73.92;100251.97;7399354;19;1735;-65
2022/11/16 08:02:20;;;;;;;;;;;;;;;20.89;73.63;100257.63;7401655;19;1510;-64
2022/11/16 08:04:49;;;;;;;;;;;;;;;20.62;74.12;100240.69;7399830;19;1869;-67
2022/11/16 08:07:17;;;;;;;;;;;;;;;20.71;73.77;100253.19;7401618;19;1458;-65
2022/11/16 08:09:46;;;;;;;;;;;;;;;20.82;74.50;100258.25;7399266;19;1755;-61
2022/11/16 08:12:14;;;;;;;;;;;;;;;21.00;74.57;100262.72;7399449;19;1375;-64
2022/11/16 08:14:45;;;;;;;;;;;;;;;21.20;74.10;100239.94;7397999;19;1406;-69
2022/11/16 08:17:13;;;;;;;;;;;;;;;21.22;74.73;100234.41;7399986;19;1397;-65
2022/11/16 08:19:43;;;;;;;;;;;;;;;21.24;75.01;100237.78;7401288;19;1385;-64
2022/11/16 08:22:12;;;;;;;;;;;;;;;21.14;75.56;100235.22;7400974;19;1471;-64
2022/11/16 08:24:41;;;;;;;;;;;;;;;21.16;75.39;100240.44;7403292;19;1842;-66
2022/11/16 08:27:09;;;;;;;;;;;;;;;21.30;76.16;100234.44;7408832;19;1626;-64
2022/11/16 08:29:38;;;;;;;;;;;;;;;21.35;75.62;100233.97;7408146;19;1340;-65
2022/11/16 08:32:08;;;;;;;;;;;;;;;21.17;76.72;100234.03;7410852;19;1358;-65
2022/11/16 08:34:37;;;;;;;;;;;;;;;20.95;77.33;100241.72;7410164;19;1427;-62
2022/11/16 08:37:05;;;;;;;;;;;;;;;20.92;75.80;100247.41;7407837;19;1684;-62
2022/11/16 08:39:33;;;;;;;;;;;;;;;21.01;74.52;100230.31;7408394;19;1486;-61
2022/11/16 08:42:02;;;;;;;;;;;;;;;20.95;75.32;100247.09;7408226;19;1495;-62
2022/11/16 08:44:30;;;;;;;;;;;;;;;20.63;76.55;100240.53;7409652;19;1558;-63
2022/11/16 08:46:58;;;;;;;;;;;;;;;20.30;78.27;100234.06;7407004;19;1838;-64
2022/11/16 08:49:30;;;;;;;;;;;;;;;20.09;78.42;100223.69;7410209;19;1842;-64
2022/11/16 08:51:58;;;;;;;;;;;;;;;20.03;78.78;100235.03;7409023;19;1617;-63
2022/11/16 08:54:29;;;;;;;;;;;;;;;19.94;78.52;100222.56;7406402;19;1727;-62
2022/11/16 08:56:57;;;;;;;;;;;;;;;19.82;78.51;100214.75;7407393;19;1765;-63
2022/11/16 08:59:26;;;;;;;;;;;;;;;19.81;78.49;100226.47;7409159;19;1514;-65
2022/11/16 09:01:54;;;;;;;;;;;;;;;19.76;79.12;100215.38;7409929;19;952;-67
2022/11/16 09:04:23;;;;;;;;;;;;;;;19.75;78.57;100218.19;7408816;19;1759;-68
2022/11/16 09:06:54;;;;;;;;;;;;;;;19.71;78.24;100220.34;7406244;19;1821;-69
2022/11/16 09:09:22;;;;;;;;;;;;;;;19.65;78.20;100210.19;7407433;19;1245;-66
2022/11/16 09:11:52;;;;;;;;;;;;;;;19.62;78.74;100218.56;7407632;19;1366;-66
2022/11/16 09:14:21;;;;;;;;;;;;;;;19.57;78.58;100204.75;7406813;19;1426;-66
2022/11/16 09:16:49;;;;;;;;;;;;;;;19.53;78.80;100203.38;7406862;19;1232;-67
2022/11/16 09:19:19;;;;;;;;;;;;;;;19.51;78.79;100198.16;7407668;19;1310;-66
2022/11/16 09:21:47;;;;;;;;;;;;;;;19.45;79.09;100202.28;7407408;19;1377;-66
2022/11/16 09:24:18;;;;;;;;;;;;;;;19.91;77.76;100198.72;7407826;19;1297;-67
2022/11/16 09:26:47;;;;;;;;;;;;;;;20.51;75.19;100201.47;7403645;19;1857;-66
2022/11/16 09:29:16;;;;;;;;;;;;;;;20.84;74.44;100199.00;7407308;19;1329;-66
2022/11/16 10:40:16;;;;;;;;;;;;;;;19.37;77.47;100078.88;7389189;19;1735;-39
2022/11/16 10:42:46;;;;;;;;;;;;;;;19.27;77.26;100102.25;7402564;19;1208;-38
2022/11/16 10:45:19;;;;;;;;;;;;;;;19.31;77.33;100089.38;7399316;19;1875;-39
2022/11/16 10:47:50;;;;;;;;;;;;;;;19.27;77.62;100073.59;7396815;19;1547;-39
2022/11/16 10:50:41;;;;;;;;;;;;;;;19.24;77.94;100065.88;7399772;19;1427;-38
2022/11/16 10:53:13;;;;;;;;;;;;;;;19.33;78.52;100074.81;7332393;19;14133;-41
2022/11/16 10:55:44;;;;;;;;;;;;;;;19.40;78.59;100072.38;7397433;19;1678;-38
2022/11/16 10:58:12;;;;;;;;;;;;;;;19.42;78.35;100062.34;7391662;19;1734;-39
2022/11/16 11:00:45;;;;;;;;;;;;;;;19.43;78.04;100072.88;7397594;19;1804;-40
2022/11/16 11:03:14;;;;;;;;;;;;;;;19.34;78.37;100065.78;7394241;19;1648;-39
2022/11/16 11:05:51;;;;;;;;;;;;;;;19.35;78.73;100062.09;7396258;19;2140;-38
2022/11/16 11:08:26;;;;;;;;;;;;;;;19.41;77.88;100066.00;7395981;19;1648;-39
2022/11/16 11:13:47;;;;;;;;;;;;;;;19.53;77.81;100047.84;7394862;19;1898;-39
2022/11/16 11:16:17;;;;;;;;;;;;;;;19.47;79.15;100034.03;7397014;19;2061;-39
2022/11/16 11:18:45;;;;;;;;;;;;;;;19.42;78.64;100031.00;7400291;19;1507;-41
2022/11/16 11:21:20;;;;;;;;;;;;;;;19.51;78.71;100037.25;7401529;19;1842;-40
2022/11/16 11:23:49;;;;;;;;;;;;;;;19.45;79.24;100033.34;7400579;19;1976;-40
2022/11/16 11:26:38;;;;;;;;;;;;;;;19.45;79.21;100033.34;7398411;19;1843;-40
2022/11/16 11:29:22;;;;;;;;;;;;;;;19.48;79.07;100027.69;7400664;19;2577;-40
2022/11/16 11:31:51;;;;;;;;;;;;;;;19.44;79.26;100031.69;7399806;19;1513;-40
2022/11/16 11:34:22;;;;;;;;;;;;;;;19.28;78.96;100005.59;7399078;19;1635;-39
2022/11/16 11:36:53;;;;;;;;;;;;;;;19.21;77.63;100011.72;7399419;19;1624;-40
2022/11/16 11:39:32;;;;;;;;;;;;;;;19.12;78.06;100010.84;7396934;19;1723;-39
2022/11/16 11:42:22;;;;;;;;;;;;;;;19.14;78.51;100014.19;7397726;19;1664;-38
2022/11/16 11:44:56;;;;;;;;;;;;;;;19.19;77.76;100005.69;7398924;19;1628;-39
2022/11/16 11:47:39;;;;;;;;;;;;;;;19.21;77.12;100009.88;7397638;19;1836;-39
2022/11/16 11:50:12;;;;;;;;;;;;;;;19.17;77.28;100018.41;7399550;19;1563;-39
2022/11/16 11:52:42;;;;;;;;;;;;;;;19.15;76.32;100002.47;7400330;19;1629;-40
2022/11/16 11:55:15;;;;;;;;;;;;;;;19.08;76.80;99996.91;7399379;19;1915;-38
2022/11/16 11:57:45;;;;;;;;;;;;;;;19.20;76.24;100026.13;7398728;19;1499;-38
2022/11/16 12:00:17;;;;;;;;;;;;;;;19.24;76.46;100000.72;7404972;19;1761;-40
2022/11/16 12:03:07;;;;;;;;;;;;;;;19.33;75.77;100007.78;7404108;19;1834;-40
2022/11/16 12:05:46;;;;;;;;;;;;;;;19.31;76.59;100015.16;7405926;19;1855;-41
2022/11/16 12:08:26;;;;;;;;;;;;;;;19.38;77.10;99984.06;7407052;19;1596;-40
2022/11/16 12:10:57;;;;;;;;;;;;;;;19.45;75.95;99974.38;7407357;19;1646;-40
2022/11/16 12:13:36;;;;;;;;;;;;;;;19.49;76.11;99993.66;7408690;19;1735;-40
2022/11/16 12:16:13;;;;;;;;;;;;;;;19.48;75.27;99981.28;7406581;19;1483;-39
2022/11/16 12:18:49;;;;;;;;;;;;;;;19.36;75.53;99975.31;7405399;19;1963;-41
2022/11/16 12:21:21;;;;;;;;;;;;;;;19.28;75.68;99983.31;7406986;19;1266;-41
2022/11/16 12:23:56;;;;;;;;;;;;;;;19.23;75.85;99974.88;7406442;19;1483;-41
2022/11/16 12:26:30;;;;;;;;;;;;;;;19.26;75.36;99979.94;7406126;19;1856;-40
2022/11/16 12:29:05;;;;;;;;;;;;;;;19.31;75.10;99955.34;7407439;19;1045;-41
2022/11/16 12:31:52;;;;;;;;;;;;;;;19.43;74.14;99964.81;7350388;19;14183;-42
2022/11/16 12:34:24;;;;;;;;;;;;;;;19.67;73.14;99972.16;7406806;19;2012;-41
2022/11/16 12:36:57;;;;;;;;;;;;;;;19.70;72.98;99966.47;7406080;19;1531;-42
2022/11/16 12:39:25;;;;;;;;;;;;;;;19.65;73.29;99939.28;7406130;19;1698;-41
2022/11/16 12:42:06;;;;;;;;;;;;;;;19.65;73.26;99958.88;7404991;19;1967;-40
2022/11/16 12:44:42;;;;;;;;;;;;;;;19.63;73.36;99946.66;7407192;19;1778;-40
2022/11/16 12:47:17;;;;;;;;;;;;;;;19.57;73.39;99928.53;7404889;19;1886;-40
2022/11/16 12:49:53;;;;;;;;;;;;;;;19.54;73.81;99942.25;7405981;19;1764;-42
2022/11/16 12:52:31;;;;;;;;;;;;;;;19.62;77.05;99926.22;7407362;19;1770;-41
2022/11/16 12:55:11;;;;;;;;;;;;;;;19.67;75.89;99945.31;7407141;19;1568;-41
2022/11/16 12:57:44;;;;;;;;;;;;;;;19.71;75.29;99949.41;7404675;19;1656;-42
2022/11/16 13:00:14;;;;;;;;;;;;;;;19.66;76.10;99944.50;7407348;19;1640;-41
2022/11/16 13:02:55;;;;;;;;;;;;;;;19.64;75.96;99934.94;7403784;19;1751;-41
2022/11/16 13:05:25;;;;;;;;;;;;;;;19.62;76.19;99940.44;7406645;19;1623;-40
2022/11/16 13:07:56;;;;;;;;;;;;;;;19.48;76.53;99936.53;7404675;19;1931;-41
2022/11/16 13:10:26;;;;;;;;;;;;;;;19.41;77.01;99938.16;7403906;19;1788;-41
2022/11/16 13:12:57;;;;;;;;;;;;;;;19.45;77.37;99938.66;7407310;19;1013;-41
2022/11/16 13:15:29;;;;;;;;;;;;;;;19.59;78.64;99939.94;7403937;19;1996;-42
2022/11/16 13:18:02;;;;;;;;;;;;;;;19.55;78.62;99930.53;7405036;19;1945;-40
2022/11/16 13:20:35;;;;;;;;;;;;;;;19.47;77.23;99934.81;7406806;19;1707;-41
2022/11/16 13:23:06;;;;;;;;;;;;;;;19.55;78.02;99931.34;7405436;19;1691;-42
2022/11/16 13:25:38;;;;;;;;;;;;;;;19.30;76.88;99935.75;7403416;19;1932;-42
2022/11/16 13:28:12;;;;;;;;;;;;;;;19.19;77.96;99914.56;7402599;19;1853;-41
2022/11/16 13:30:46;;;;;;;;;;;;;;;19.18;77.96;99940.53;7402214;19;2076;-40
2022/11/16 13:33:23;;;;;;;;;;;;;;;19.14;77.74;99917.72;7404128;19;1849;-40
2022/11/16 13:35:51;;;;;;;;;;;;;;;19.14;77.55;99904.31;7404452;19;1787;-42
2022/11/16 13:38:39;;;;;;;;;;;;;;;19.14;77.55;99912.34;7404277;19;1672;-40
2022/11/16 13:41:22;;;;;;;;;;;;;;;19.10;77.20;99910.13;7401602;19;2227;-42
2022/11/16 13:43:51;;;;;;;;;;;;;;;19.06;77.26;99894.38;7404837;19;1655;-41
2022/11/16 13:46:19;;;;;;;;;;;;;;;19.05;77.47;99919.47;7404517;19;2050;-40
2022/11/16 13:48:50;;;;;;;;;;;;;;;19.11;77.24;99891.22;7405387;19;1931;-41
2022/11/16 13:51:20;;;;;;;;;;;;;;;19.06;77.14;99894.38;7406099;19;1308;-41
2022/11/16 13:53:49;;;;;;;;;;;;;;;19.00;77.33;99888.78;7404280;19;2063;-40
2022/11/16 13:56:18;;;;;;;;;;;;;;;18.96;77.07;99885.59;7404294;19;1813;-41
2022/11/16 13:58:47;;;;;;;;;;;;;;;18.93;77.25;99899.31;7405634;19;991;-41
2022/11/16 14:01:16;;;;;;;;;;;;;;;18.91;77.44;99885.22;7403698;19;1743;-41
2022/11/16 14:03:45;;;;;;;;;;;;;;;18.94;77.09;99890.28;7404530;19;1746;-40
2022/11/16 14:06:31;;;;;;;;;;;;;;;18.87;77.04;99899.94;7404667;19;1921;-40
2022/11/16 14:09:02;;;;;;;;;;;;;;;18.84;77.22;99879.66;7403504;19;1813;-41
2022/11/16 14:11:34;;;;;;;;;;;;;;;18.85;77.62;99888.53;7403515;19;1821;-41
2022/11/16 14:14:04;;;;;;;;;;;;;;;19.07;76.66;99871.94;7404684;19;1103;-40
2022/11/16 14:16:46;;;;;;;;;;;;;;;19.67;75.13;99870.22;7404816;19;1907;-41
2022/11/16 14:19:29;;;;;;;;;;;;;;;20.22;73.50;99850.94;7404587;19;1956;-41
2022/11/16 14:22:02;;;;;;;;;;;;;;;20.08;74.00;99861.50;7402028;19;1950;-41
2022/11/16 14:24:36;;;;;;;;;;;;;;;20.35;73.79;99868.41;7403272;19;1647;-42
2022/11/16 14:27:09;;;;;;;;;;;;;;;20.54;73.31;99849.28;7401543;19;1846;-41
2022/11/16 14:29:47;;;;;;;;;;;;;;;20.70;72.72;99851.16;7403157;19;1119;-41
2022/11/16 14:32:20;;;;;;;;;;;;;;;20.03;76.04;99859.31;7402868;19;1972;-41
2022/11/16 14:34:50;;;;;;;;;;;;;;;19.65;76.89;99864.19;7403588;19;1826;-41
2022/11/16 14:37:30;;;;;;;;;;;;;;;19.40;77.49;99858.72;7402994;19;1799;-41
2022/11/16 14:40:04;;;;;;;;;;;;;;;19.32;77.30;99863.19;7403139;19;1869;-42
2022/11/16 14:42:33;;;;;;;;;;;;;;;19.19;77.64;99852.91;7402293;19;1830;-41
2022/11/16 14:45:03;;;;;;;;;;;;;;;19.20;77.83;99859.94;7402505;19;1842;-41
2022/11/16 14:47:33;;;;;;;;;;;;;;;19.10;77.43;99844.00;7401763;19;1861;-41
2022/11/16 14:50:02;;;;;;;;;;;;;;;19.05;77.70;99848.97;7402816;19;1808;-41
2022/11/16 14:52:33;;;;;;;;;;;;;;;19.03;77.39;99854.50;7404541;19;1025;-41
2022/11/16 14:55:07;;;;;;;;;;;;;;;19.00;77.48;99846.78;7403017;19;1612;-42
2022/11/16 14:57:35;;;;;;;;;;;;;;;18.97;77.46;99836.38;7402249;19;1961;-42
2022/11/16 15:00:13;;;;;;;;;;;;;;;18.93;77.36;99844.88;7400303;19;1788;-41